sensor_id;sensor_type;location;lat;lon;timestamp;pressure;altitude;pressure_sealevel;temperature;humidity
61757;BME280;57225;61.460;24.060;2023-03-26T00:00:46;98474.25;;;-4.48;100.00
61757;BME280;57225;61.460;24.060;2023-03-26T00:03:34;98469.53;;;-4.51;100.00
61757;BME280;57225;61.460;24.060;2023-03-26T00:06:21;98473.38;;;-4.52;100.00
61757;BME280;57225;61.460;24.060;2023-03-26T00:09:07;98472.47;;;-4.56;100.00
61757;BME280;57225;61.460;24.060;2023-03-26T00:11:52;98474.41;;;-4.56;100.00
61757;BME280;57225;61.460;24.060;2023-03-26T00:14:36;98474.75;;;-4.58;100.00
61757;BME280;57225;61.460;24.060;2023-03-26T00:17:21;98471.34;;;-4.67;100.00
61757;BME280;57225;61.460;24.060;2023-03-26T00:20:06;98480.22;;;-4.70;100.00
61757;BME280;57225;61.460;24.060;2023-03-26T00:22:52;98470.56;;;-4.67;100.00
61757;BME280;57225;61.460;24.060;2023-03-26T00:25:38;98488.34;;;-4.58;100.00
61757;BME280;57225;61.460;24.060;2023-03-26T00:28:24;98474.44;;;-4.68;100.00
61757;BME280;57225;61.460;24.060;2023-03-26T00:31:13;98485.88;;;-4.75;100.00
61757;BME280;57225;61.460;24.060;2023-03-26T00:33:57;98483.84;;;-4.78;100.00
61757;BME280;57225;61.460;24.060;2023-03-26T00:36:42;98489.81;;;-4.72;100.00
61757;BME280;57225;61.460;24.060;2023-03-26T00:39:27;98499.91;;;-4.73;100.00
61757;BME280;57225;61.460;24.060;2023-03-26T00:42:12;98505.00;;;-4.83;100.00
61757;BME280;57225;61.460;24.060;2023-03-26T00:44:58;98508.97;;;-4.81;100.00
61757;BME280;57225;61.460;24.060;2023-03-26T00:47:43;98514.06;;;-4.79;100.00
61757;BME280;57225;61.460;24.060;2023-03-26T00:50:28;98495.50;;;-4.90;100.00
61757;BME280;57225;61.460;24.060;2023-03-26T00:53:13;98506.94;;;-4.84;100.00
61757;BME280;57225;61.460;24.060;2023-03-26T00:55:58;98523.47;;;-4.77;100.00
61757;BME280;57225;61.460;24.060;2023-03-26T00:58:43;98516.91;;;-4.76;100.00
61757;BME280;57225;61.460;24.060;2023-03-26T01:01:29;98524.59;;;-4.78;100.00
61757;BME280;57225;61.460;24.060;2023-03-26T01:04:24;98515.88;;;-4.83;100.00
61757;BME280;57225;61.460;24.060;2023-03-26T01:07:15;98532.41;;;-4.76;100.00
61757;BME280;57225;61.460;24.060;2023-03-26T01:10:03;98516.66;;;-4.83;100.00
61757;BME280;57225;61.460;24.060;2023-03-26T01:12:47;98512.81;;;-4.82;100.00
61757;BME280;57225;61.460;24.060;2023-03-26T01:15:32;98517.91;;;-4.80;100.00
61757;BME280;57225;61.460;24.060;2023-03-26T01:18:21;98528.22;;;-4.86;100.00
61757;BME280;57225;61.460;24.060;2023-03-26T01:21:09;98526.84;;;-4.80;100.00
61757;BME280;57225;61.460;24.060;2023-03-26T01:24:07;98507.50;;;-5.03;100.00
61757;BME280;57225;61.460;24.060;2023-03-26T01:26:54;98527.78;;;-4.88;100.00
61757;BME280;57225;61.460;24.060;2023-03-26T01:29:45;98531.72;;;-4.86;100.00
61757;BME280;57225;61.460;24.060;2023-03-26T01:36:21;98541.13;;;-4.83;100.00
61757;BME280;57225;61.460;24.060;2023-03-26T01:42:32;98539.06;;;-4.86;100.00
61757;BME280;57225;61.460;24.060;2023-03-26T01:45:25;98538.84;;;-4.93;100.00
61757;BME280;57225;61.460;24.060;2023-03-26T01:48:11;98538.97;;;-5.02;100.00
61757;BME280;57225;61.460;24.060;2023-03-26T01:50:56;98536.13;;;-4.93;100.00
61757;BME280;57225;61.460;24.060;2023-03-26T01:53:44;98535.22;;;-4.97;100.00
61757;BME280;57225;61.460;24.060;2023-03-26T01:59:53;98540.00;;;-4.94;100.00
61757;BME280;57225;61.460;24.060;2023-03-26T02:05:54;98534.09;;;-4.96;100.00
61757;BME280;57225;61.460;24.060;2023-03-26T02:08:46;98537.06;;;-5.01;100.00
61757;BME280;57225;61.460;24.060;2023-03-26T02:11:36;98537.94;;;-4.97;100.00
61757;BME280;57225;61.460;24.060;2023-03-26T02:14:21;98536.47;;;-5.07;100.00
61757;BME280;57225;61.460;24.060;2023-03-26T02:17:06;98541.34;;;-5.12;100.00
61757;BME280;57225;61.460;24.060;2023-03-26T02:19:52;98539.31;;;-5.03;100.00
61757;BME280;57225;61.460;24.060;2023-03-26T02:22:38;98542.91;;;-5.11;100.00
61757;BME280;57225;61.460;24.060;2023-03-26T02:25:29;98543.03;;;-5.08;100.00
61757;BME280;57225;61.460;24.060;2023-03-26T02:28:13;98546.78;;;-5.12;100.00
61757;BME280;57225;61.460;24.060;2023-03-26T02:30:59;98541.78;;;-5.10;100.00
61757;BME280;57225;61.460;24.060;2023-03-26T02:33:44;98539.41;;;-5.12;100.00
61757;BME280;57225;61.460;24.060;2023-03-26T02:36:30;98551.75;;;-5.14;100.00
61757;BME280;57225;61.460;24.060;2023-03-26T02:39:15;98539.75;;;-5.25;100.00
61757;BME280;57225;61.460;24.060;2023-03-26T02:41:59;98544.97;;;-5.20;100.00
61757;BME280;57225;61.460;24.060;2023-03-26T02:44:44;98545.41;;;-5.18;100.00
61757;BME280;57225;61.460;24.060;2023-03-26T02:47:28;98554.78;;;-5.16;100.00
61757;BME280;57225;61.460;24.060;2023-03-26T02:50:13;98554.69;;;-5.19;100.00
61757;BME280;57225;61.460;24.060;2023-03-26T02:52:57;98561.91;;;-5.23;100.00
61757;BME280;57225;61.460;24.060;2023-03-26T02:55:42;98557.16;;;-5.27;100.00
61757;BME280;57225;61.460;24.060;2023-03-26T02:58:26;98568.25;;;-5.19;100.00
61757;BME280;57225;61.460;24.060;2023-03-26T03:01:13;98568.25;;;-5.19;100.00
61757;BME280;57225;61.460;24.060;2023-03-26T03:04:02;98570.97;;;-5.19;100.00
61757;BME280;57225;61.460;24.060;2023-03-26T03:06:47;98560.31;;;-5.24;100.00
61757;BME280;57225;61.460;24.060;2023-03-26T03:09:35;98574.47;;;-5.31;100.00
61757;BME280;57225;61.460;24.060;2023-03-26T03:12:20;98571.94;;;-5.36;100.00
61757;BME280;57225;61.460;24.060;2023-03-26T03:15:05;98574.66;;;-5.36;100.00
61757;BME280;57225;61.460;24.060;2023-03-26T03:17:49;98575.03;;;-5.38;100.00
61757;BME280;57225;61.460;24.060;2023-03-26T03:20:35;98562.53;;;-5.51;100.00
61757;BME280;57225;61.460;24.060;2023-03-26T03:23:19;98568.88;;;-5.47;100.00
61757;BME280;57225;61.460;24.060;2023-03-26T03:26:05;98575.91;;;-5.46;100.00
61757;BME280;57225;61.460;24.060;2023-03-26T03:28:57;98574.78;;;-5.45;100.00
61757;BME280;57225;61.460;24.060;2023-03-26T03:31:41;98569.41;;;-5.53;100.00
61757;BME280;57225;61.460;24.060;2023-03-26T03:34:26;98566.81;;;-5.50;100.00
61757;BME280;57225;61.460;24.060;2023-03-26T03:37:10;98574.97;;;-5.50;100.00
61757;BME280;57225;61.460;24.060;2023-03-26T03:39:54;98565.44;;;-5.56;100.00
61757;BME280;57225;61.460;24.060;2023-03-26T03:42:39;98559.25;;;-5.56;100.00
61757;BME280;57225;61.460;24.060;2023-03-26T03:45:23;98557.84;;;-5.62;100.00
61757;BME280;57225;61.460;24.060;2023-03-26T03:48:07;98572.13;;;-5.53;100.00
61757;BME280;57225;61.460;24.060;2023-03-26T03:50:53;98577.63;;;-5.62;100.00
61757;BME280;57225;61.460;24.060;2023-03-26T03:53:38;98577.63;;;-5.62;100.00
61757;BME280;57225;61.460;24.060;2023-03-26T03:56:23;98556.91;;;-5.79;100.00
61757;BME280;57225;61.460;24.060;2023-03-26T03:59:10;98582.69;;;-5.73;100.00
61757;BME280;57225;61.460;24.060;2023-03-26T04:01:54;98565.91;;;-5.87;100.00
61757;BME280;57225;61.460;24.060;2023-03-26T04:04:39;98591.84;;;-5.77;100.00
61757;BME280;57225;61.460;24.060;2023-03-26T04:07:24;98595.00;;;-5.75;100.00
61757;BME280;57225;61.460;24.060;2023-03-26T04:10:13;98592.28;;;-5.75;100.00
61757;BME280;57225;61.460;24.060;2023-03-26T04:12:58;98592.28;;;-5.75;100.00
61757;BME280;57225;61.460;24.060;2023-03-26T04:15:43;98584.16;;;-5.75;100.00
61757;BME280;57225;61.460;24.060;2023-03-26T04:18:27;98609.03;;;-5.73;100.00
61757;BME280;57225;61.460;24.060;2023-03-26T04:21:13;98610.94;;;-5.74;100.00
61757;BME280;57225;61.460;24.060;2023-03-26T04:23:58;98607.00;;;-5.76;100.00
61757;BME280;57225;61.460;24.060;2023-03-26T04:26:44;98600.19;;;-5.82;100.00
61757;BME280;57225;61.460;24.060;2023-03-26T04:29:34;98591.34;;;-5.91;100.00
61757;BME280;57225;61.460;24.060;2023-03-26T04:32:23;98610.03;;;-5.78;100.00
61757;BME280;57225;61.460;24.060;2023-03-26T04:35:13;98600.19;;;-5.82;100.00
61757;BME280;57225;61.460;24.060;2023-03-26T04:38:02;98594.97;;;-5.87;100.00
61757;BME280;57225;61.460;24.060;2023-03-26T04:40:50;98586.41;;;-5.77;100.00
61757;BME280;57225;61.460;24.060;2023-03-26T04:43:35;98604.41;;;-5.73;100.00
61757;BME280;57225;61.460;24.060;2023-03-26T04:46:20;98599.19;;;-5.78;100.00
61757;BME280;57225;61.460;24.060;2023-03-26T04:49:05;98603.94;;;-5.75;100.00
61757;BME280;57225;61.460;24.060;2023-03-26T04:51:49;98616.69;;;-5.75;100.00
61757;BME280;57225;61.460;24.060;2023-03-26T04:54:33;98615.13;;;-5.76;100.00
61757;BME280;57225;61.460;24.060;2023-03-26T04:57:26;98580.03;;;-5.93;100.00
61757;BME280;57225;61.460;24.060;2023-03-26T05:00:14;98613.34;;;-5.72;100.00
61757;BME280;57225;61.460;24.060;2023-03-26T05:02:59;98623.19;;;-5.68;100.00
61757;BME280;57225;61.460;24.060;2023-03-26T05:05:44;98627.16;;;-5.65;100.00
61757;BME280;57225;61.460;24.060;2023-03-26T05:08:28;98624.13;;;-5.63;100.00
61757;BME280;57225;61.460;24.060;2023-03-26T05:11:13;98627.63;;;-5.63;100.00
61757;BME280;57225;61.460;24.060;2023-03-26T05:13:58;98625.56;;;-5.66;100.00
61757;BME280;57225;61.460;24.060;2023-03-26T05:16:43;98628.75;;;-5.64;100.00
61757;BME280;57225;61.460;24.060;2023-03-26T05:19:27;98631.47;;;-5.64;100.00
61757;BME280;57225;61.460;24.060;2023-03-26T05:22:12;98617.84;;;-5.76;100.00
61757;BME280;57225;61.460;24.060;2023-03-26T05:24:56;98624.41;;;-5.77;100.00
61757;BME280;57225;61.460;24.060;2023-03-26T05:27:41;98628.50;;;-5.71;100.00
61757;BME280;57225;61.460;24.060;2023-03-26T05:30:26;98593.19;;;-5.83;100.00
61757;BME280;57225;61.460;24.060;2023-03-26T05:33:11;98628.06;;;-5.61;100.00
61757;BME280;57225;61.460;24.060;2023-03-26T05:36:06;98623.69;;;-5.53;100.00
61757;BME280;57225;61.460;24.060;2023-03-26T05:38:52;98623.97;;;-5.67;100.00
61757;BME280;57225;61.460;24.060;2023-03-26T05:41:36;98631.50;;;-5.52;100.00
61757;BME280;57225;61.460;24.060;2023-03-26T05:44:21;98624.59;;;-5.49;100.00
61757;BME280;57225;61.460;24.060;2023-03-26T05:47:05;98629.72;;;-5.48;100.00
61757;BME280;57225;61.460;24.060;2023-03-26T05:49:50;98629.06;;;-5.45;100.00
61757;BME280;57225;61.460;24.060;2023-03-26T05:52:34;98622.34;;;-5.47;100.00
61757;BME280;57225;61.460;24.060;2023-03-26T05:55:19;98631.22;;;-5.38;100.00
61757;BME280;57225;61.460;24.060;2023-03-26T05:58:05;98630.78;;;-5.28;100.00
61757;BME280;57225;61.460;24.060;2023-03-26T06:00:59;98641.53;;;-5.32;100.00
61757;BME280;57225;61.460;24.060;2023-03-26T06:03:45;98634.53;;;-5.33;100.00
61757;BME280;57225;61.460;24.060;2023-03-26T06:06:30;98629.59;;;-5.18;100.00
61757;BME280;57225;61.460;24.060;2023-03-26T06:09:14;98627.59;;;-5.30;100.00
61757;BME280;57225;61.460;24.060;2023-03-26T06:12:00;98620.00;;;-5.37;100.00
61757;BME280;57225;61.460;24.060;2023-03-26T06:14:44;98625.72;;;-5.17;100.00
61757;BME280;57225;61.460;24.060;2023-03-26T06:17:30;98641.75;;;-5.24;100.00
61757;BME280;57225;61.460;24.060;2023-03-26T06:20:14;98632.94;;;-5.34;100.00
61757;BME280;57225;61.460;24.060;2023-03-26T06:22:59;98634.81;;;-5.13;100.00
61757;BME280;57225;61.460;24.060;2023-03-26T06:25:44;98630.53;;;-5.35;100.00
61757;BME280;57225;61.460;24.060;2023-03-26T06:28:28;98624.09;;;-5.31;100.00
61757;BME280;57225;61.460;24.060;2023-03-26T06:31:13;98636.47;;;-5.21;100.00
61757;BME280;57225;61.460;24.060;2023-03-26T06:33:57;98629.69;;;-5.15;100.00
61757;BME280;57225;61.460;24.060;2023-03-26T06:36:42;98641.44;;;-5.23;100.00
61757;BME280;57225;61.460;24.060;2023-03-26T06:56:27;98653.84;;;-5.01;100.00
61757;BME280;57225;61.460;24.060;2023-03-26T06:59:11;98663.78;;;-4.93;100.00
61757;BME280;57225;61.460;24.060;2023-03-26T07:01:56;98656.34;;;-4.84;100.00
61757;BME280;57225;61.460;24.060;2023-03-26T07:04:40;98661.16;;;-4.57;100.00
61757;BME280;57225;61.460;24.060;2023-03-26T07:07:25;98654.47;;;-4.47;100.00
61757;BME280;57225;61.460;24.060;2023-03-26T07:10:10;98645.06;;;-4.50;100.00
61757;BME280;57225;61.460;24.060;2023-03-26T07:12:54;98655.34;;;-4.79;100.00
61757;BME280;57225;61.460;24.060;2023-03-26T07:15:38;98660.69;;;-4.71;100.00
61757;BME280;57225;61.460;24.060;2023-03-26T07:18:23;98657.06;;;-4.63;100.00
61757;BME280;57225;61.460;24.060;2023-03-26T07:21:08;98658.41;;;-4.69;100.00
61757;BME280;57225;61.460;24.060;2023-03-26T07:23:53;98654.66;;;-4.89;100.00
61757;BME280;57225;61.460;24.060;2023-03-26T07:26:49;98647.31;;;-4.52;100.00
61757;BME280;57225;61.460;24.060;2023-03-26T07:29:44;98648.69;;;-4.46;100.00
61757;BME280;57225;61.460;24.060;2023-03-26T07:35:54;98653.09;;;-4.53;100.00
61757;BME280;57225;61.460;24.060;2023-03-26T07:42:04;98661.69;;;-4.15;100.00
61757;BME280;57225;61.460;24.060;2023-03-26T07:45:30;98665.00;;;-4.21;100.00
61757;BME280;57225;61.460;24.060;2023-03-26T07:48:18;98667.47;;;-4.04;100.00
61757;BME280;57225;61.460;24.060;2023-03-26T07:51:04;98659.53;;;-4.09;100.00
61757;BME280;57225;61.460;24.060;2023-03-26T07:53:48;98656.56;;;-4.04;100.00
61757;BME280;57225;61.460;24.060;2023-03-26T07:56:48;98660.03;;;-4.43;100.00
61757;BME280;57225;61.460;24.060;2023-03-26T08:00:02;98660.00;;;-4.19;100.00
61757;BME280;57225;61.460;24.060;2023-03-26T08:03:22;98657.94;;;-4.10;100.00
61757;BME280;57225;61.460;24.060;2023-03-26T08:06:37;98663.81;;;-3.96;100.00
61757;BME280;57225;61.460;24.060;2023-03-26T08:09:39;98666.38;;;-3.63;99.96
61757;BME280;57225;61.460;24.060;2023-03-26T08:13:08;98664.97;;;-3.97;98.00
61757;BME280;57225;61.460;24.060;2023-03-26T08:16:09;98680.84;;;-3.99;97.07
61757;BME280;57225;61.460;24.060;2023-03-26T08:22:21;98684.44;;;-3.83;96.99
61757;BME280;57225;61.460;24.060;2023-03-26T08:28:40;98681.47;;;-3.78;96.74
61757;BME280;57225;61.460;24.060;2023-03-26T08:31:35;98689.44;;;-3.45;96.40
61757;BME280;57225;61.460;24.060;2023-03-26T08:34:19;98692.91;;;-3.32;96.52
61757;BME280;57225;61.460;24.060;2023-03-26T08:37:04;98689.72;;;-2.78;93.77
61757;BME280;57225;61.460;24.060;2023-03-26T08:39:48;98689.78;;;-2.91;92.29
61757;BME280;57225;61.460;24.060;2023-03-26T08:43:01;98689.84;;;-3.31;93.56
61757;BME280;57225;61.460;24.060;2023-03-26T08:46:07;98690.59;;;-2.74;91.54
61757;BME280;57225;61.460;24.060;2023-03-26T08:52:43;98696.97;;;-3.26;94.11
61757;BME280;57225;61.460;24.060;2023-03-26T08:55:38;98698.81;;;-3.30;92.33
61757;BME280;57225;61.460;24.060;2023-03-26T08:58:54;98700.38;;;-3.17;93.45
61757;BME280;57225;61.460;24.060;2023-03-26T09:33:14;98687.34;;;-2.17;89.19
61757;BME280;57225;61.460;24.060;2023-03-26T09:36:20;98691.84;;;-2.56;90.03
61757;BME280;57225;61.460;24.060;2023-03-26T09:45:49;98711.06;;;-3.24;91.48
61757;BME280;57225;61.460;24.060;2023-03-26T09:55:11;98717.44;;;-3.32;93.35
61757;BME280;57225;61.460;24.060;2023-03-26T09:58:22;98713.34;;;-2.98;93.83
61757;BME280;57225;61.460;24.060;2023-03-26T10:01:30;98703.91;;;-3.29;90.46
61757;BME280;57225;61.460;24.060;2023-03-26T10:04:39;98712.72;;;-3.19;89.95
61757;BME280;57225;61.460;24.060;2023-03-26T10:17:29;98732.00;;;-3.52;90.05
61757;BME280;57225;61.460;24.060;2023-03-26T10:20:42;98725.91;;;-2.94;93.20
61757;BME280;57225;61.460;24.060;2023-03-26T10:23:47;98726.50;;;-2.72;89.89
61757;BME280;57225;61.460;24.060;2023-03-26T10:33:27;98734.50;;;-2.64;89.87
61757;BME280;57225;61.460;24.060;2023-03-26T10:36:27;98725.28;;;-2.59;87.44
61757;BME280;57225;61.460;24.060;2023-03-26T10:45:55;98744.63;;;-2.33;90.34
61757;BME280;57225;61.460;24.060;2023-03-26T10:55:01;98755.56;;;-2.76;91.84
61757;BME280;57225;61.460;24.060;2023-03-26T10:57:54;98750.66;;;-2.71;88.60
61757;BME280;57225;61.460;24.060;2023-03-26T11:03:52;98753.91;;;-2.81;92.04
61757;BME280;57225;61.460;24.060;2023-03-26T11:06:59;98756.41;;;-2.60;91.30
61757;BME280;57225;61.460;24.060;2023-03-26T11:09:59;98753.16;;;-2.94;91.70
61757;BME280;57225;61.460;24.060;2023-03-26T11:15:50;98767.88;;;-2.83;92.90
61757;BME280;57225;61.460;24.060;2023-03-26T11:18:48;98747.84;;;-2.74;93.41
61757;BME280;57225;61.460;24.060;2023-03-26T11:31:56;98748.00;;;-2.24;88.39
61757;BME280;57225;61.460;24.060;2023-03-26T11:37:49;98742.97;;;-2.06;89.56
61757;BME280;57225;61.460;24.060;2023-03-26T11:40:38;98752.03;;;-2.33;91.62
61757;BME280;57225;61.460;24.060;2023-03-26T11:43:35;98752.91;;;-2.45;92.51
61757;BME280;57225;61.460;24.060;2023-03-26T11:46:22;98759.38;;;-2.65;93.98
61757;BME280;57225;61.460;24.060;2023-03-26T11:49:10;98760.03;;;-2.56;92.21
61757;BME280;57225;61.460;24.060;2023-03-26T11:52:01;98769.38;;;-2.26;93.47
61757;BME280;57225;61.460;24.060;2023-03-26T11:54:47;98747.59;;;-2.69;93.91
61757;BME280;57225;61.460;24.060;2023-03-26T11:57:34;98767.88;;;-2.55;95.79
61757;BME280;57225;61.460;24.060;2023-03-26T12:00:22;98761.63;;;-2.39;93.65
61757;BME280;57225;61.460;24.060;2023-03-26T12:03:14;98771.31;;;-2.42;94.83
61757;BME280;57225;61.460;24.060;2023-03-26T12:05:58;98765.66;;;-2.49;95.30
61757;BME280;57225;61.460;24.060;2023-03-26T12:08:45;98753.44;;;-2.55;94.74
61757;BME280;57225;61.460;24.060;2023-03-26T12:11:31;98757.94;;;-2.47;94.25
61757;BME280;57225;61.460;24.060;2023-03-26T12:14:21;98758.16;;;-2.52;94.89
61757;BME280;57225;61.460;24.060;2023-03-26T12:17:11;98761.34;;;-2.66;96.28
61757;BME280;57225;61.460;24.060;2023-03-26T12:19:55;98762.22;;;-2.46;96.26
61757;BME280;57225;61.460;24.060;2023-03-26T12:22:40;98758.16;;;-2.52;96.95
61757;BME280;57225;61.460;24.060;2023-03-26T12:25:34;98754.91;;;-2.58;96.12
61757;BME280;57225;61.460;24.060;2023-03-26T12:28:20;98752.91;;;-2.61;97.34
61757;BME280;57225;61.460;24.060;2023-03-26T12:31:06;98761.34;;;-2.50;97.05
61757;BME280;57225;61.460;24.060;2023-03-26T12:34:15;98753.94;;;-2.65;96.66
61757;BME280;57225;61.460;24.060;2023-03-26T12:37:00;98766.13;;;-2.47;97.66
61757;BME280;57225;61.460;24.060;2023-03-26T12:39:45;98761.19;;;-2.26;97.53
61757;BME280;57225;61.460;24.060;2023-03-26T12:42:31;98767.25;;;-2.32;95.93
61757;BME280;57225;61.460;24.060;2023-03-26T12:45:19;98752.72;;;-2.52;96.94
61757;BME280;57225;61.460;24.060;2023-03-26T12:48:04;98753.50;;;-2.67;97.47
61757;BME280;57225;61.460;24.060;2023-03-26T13:05:52;98752.91;;;-2.14;97.88
61757;BME280;57225;61.460;24.060;2023-03-26T13:12:24;98758.66;;;-2.19;97.63
61757;BME280;57225;61.460;24.060;2023-03-26T13:15:16;98738.13;;;-2.44;96.07
61757;BME280;57225;61.460;24.060;2023-03-26T13:24:52;98748.97;;;-2.32;98.13
61757;BME280;57225;61.460;24.060;2023-03-26T13:27:58;98754.75;;;-2.33;97.34
61757;BME280;57225;61.460;24.060;2023-03-26T13:31:23;98761.47;;;-2.31;97.77
61757;BME280;57225;61.460;24.060;2023-03-26T13:37:35;98755.38;;;-2.09;96.95
61757;BME280;57225;61.460;24.060;2023-03-26T13:40:42;98748.28;;;-2.29;96.86
61757;BME280;57225;61.460;24.060;2023-03-26T13:46:38;98752.31;;;-2.23;97.47
61757;BME280;57225;61.460;24.060;2023-03-26T13:49:36;98755.84;;;-2.22;96.64
61757;BME280;57225;61.460;24.060;2023-03-26T13:52:36;98759.38;;;-2.22;97.07
61757;BME280;57225;61.460;24.060;2023-03-26T13:55:32;98755.06;;;-2.23;97.33
61757;BME280;57225;61.460;24.060;2023-03-26T13:58:43;98759.09;;;-2.17;97.31
61757;BME280;57225;61.460;24.060;2023-03-26T14:01:39;98761.00;;;-2.33;96.26
61757;BME280;57225;61.460;24.060;2023-03-26T14:04:34;98757.38;;;-2.53;97.35
61757;BME280;57225;61.460;24.060;2023-03-26T14:08:15;98749.16;;;-2.40;97.96
61757;BME280;57225;61.460;24.060;2023-03-26T14:10:39;98751.03;;;-2.57;99.04
61757;BME280;57225;61.460;24.060;2023-03-26T14:16:25;98748.16;;;-2.92;98.82
61757;BME280;57225;61.460;24.060;2023-03-26T14:25:29;98760.78;;;-2.71;100.00
61757;BME280;57225;61.460;24.060;2023-03-26T14:29:00;98753.19;;;-2.78;100.00
61757;BME280;57225;61.460;24.060;2023-03-26T14:31:56;98755.44;;;-2.68;100.00
61757;BME280;57225;61.460;24.060;2023-03-26T14:50:18;98750.78;;;-2.67;100.00
61757;BME280;57225;61.460;24.060;2023-03-26T14:53:15;98751.97;;;-2.80;100.00
61757;BME280;57225;61.460;24.060;2023-03-26T15:06:09;98757.13;;;-3.19;100.00
61757;BME280;57225;61.460;24.060;2023-03-26T15:11:40;98755.94;;;-3.06;100.00
61757;BME280;57225;61.460;24.060;2023-03-26T15:40:06;98747.22;;;-3.11;100.00
61757;BME280;57225;61.460;24.060;2023-03-26T15:45:45;98762.47;;;-3.22;100.00
61757;BME280;57225;61.460;24.060;2023-03-26T15:51:48;98762.47;;;-3.22;100.00
61757;BME280;57225;61.460;24.060;2023-03-26T15:54:44;98761.00;;;-3.32;100.00
61757;BME280;57225;61.460;24.060;2023-03-26T15:57:45;98768.25;;;-3.24;100.00
61757;BME280;57225;61.460;24.060;2023-03-26T16:00:42;98760.13;;;-3.36;100.00
61757;BME280;57225;61.460;24.060;2023-03-26T16:04:23;98767.81;;;-3.26;100.00
61757;BME280;57225;61.460;24.060;2023-03-26T16:21:45;98768.50;;;-3.29;100.00
61757;BME280;57225;61.460;24.060;2023-03-26T16:24:39;98774.16;;;-3.34;100.00
61757;BME280;57225;61.460;24.060;2023-03-26T16:27:27;98776.69;;;-3.41;100.00
61757;BME280;57225;61.460;24.060;2023-03-26T16:30:24;98756.63;;;-3.49;100.00
61757;BME280;57225;61.460;24.060;2023-03-26T16:33:13;98780.34;;;-3.49;100.00
61757;BME280;57225;61.460;24.060;2023-03-26T16:39:41;98783.88;;;-3.61;100.00
61757;BME280;57225;61.460;24.060;2023-03-26T16:42:37;98771.28;;;-3.66;100.00
61757;BME280;57225;61.460;24.060;2023-03-26T16:45:34;98774.47;;;-3.63;100.00
61757;BME280;57225;61.460;24.060;2023-03-26T16:48:27;98776.06;;;-3.62;100.00
61757;BME280;57225;61.460;24.060;2023-03-26T16:54:27;98775.25;;;-3.63;100.00
61757;BME280;57225;61.460;24.060;2023-03-26T16:57:29;98773.91;;;-3.69;100.00
61757;BME280;57225;61.460;24.060;2023-03-26T17:00:39;98788.53;;;-3.61;100.00
61757;BME280;57225;61.460;24.060;2023-03-26T17:03:54;98796.22;;;-3.63;100.00
61757;BME280;57225;61.460;24.060;2023-03-26T17:10:00;98803.94;;;-3.66;100.00
61757;BME280;57225;61.460;24.060;2023-03-26T17:13:01;98797.13;;;-3.72;100.00
61757;BME280;57225;61.460;24.060;2023-03-26T17:16:00;98803.16;;;-3.78;100.00
61757;BME280;57225;61.460;24.060;2023-03-26T17:19:32;98806.91;;;-3.71;100.00
61757;BME280;57225;61.460;24.060;2023-03-26T17:22:37;98810.53;;;-3.79;100.00
61757;BME280;57225;61.460;24.060;2023-03-26T17:37:41;98807.34;;;-4.05;100.00
61757;BME280;57225;61.460;24.060;2023-03-26T17:46:41;98822.97;;;-4.02;100.00
61757;BME280;57225;61.460;24.060;2023-03-26T17:49:30;98809.84;;;-4.12;100.00
61757;BME280;57225;61.460;24.060;2023-03-26T17:52:29;98827.28;;;-4.01;100.00
61757;BME280;57225;61.460;24.060;2023-03-26T17:55:44;98827.97;;;-4.04;100.00
61757;BME280;57225;61.460;24.060;2023-03-26T17:58:40;98826.03;;;-4.03;100.00
61757;BME280;57225;61.460;24.060;2023-03-26T18:01:37;98828.44;;;-4.02;100.00
61757;BME280;57225;61.460;24.060;2023-03-26T18:04:49;98826.84;;;-4.03;100.00
61757;BME280;57225;61.460;24.060;2023-03-26T18:13:58;98824.00;;;-4.07;100.00
61757;BME280;57225;61.460;24.060;2023-03-26T18:16:50;98824.91;;;-4.15;100.00
61757;BME280;57225;61.460;24.060;2023-03-26T18:19:51;98822.06;;;-4.18;100.00
61757;BME280;57225;61.460;24.060;2023-03-26T18:22:37;98813.69;;;-4.13;100.00
61757;BME280;57225;61.460;24.060;2023-03-26T18:25:31;98812.31;;;-4.19;100.00
61757;BME280;57225;61.460;24.060;2023-03-26T18:28:17;98823.31;;;-4.16;100.00
61757;BME280;57225;61.460;24.060;2023-03-26T18:31:19;98814.81;;;-4.14;100.00
61757;BME280;57225;61.460;24.060;2023-03-26T18:34:12;98813.22;;;-4.15;100.00
61757;BME280;57225;61.460;24.060;2023-03-26T18:37:10;98811.75;;;-4.13;100.00
61757;BME280;57225;61.460;24.060;2023-03-26T18:40:10;98808.34;;;-4.22;100.00
61757;BME280;57225;61.460;24.060;2023-03-26T18:42:58;98805.94;;;-4.23;100.00
61757;BME280;57225;61.460;24.060;2023-03-26T18:45:44;98807.09;;;-4.24;100.00
61757;BME280;57225;61.460;24.060;2023-03-26T18:48:31;98809.81;;;-4.24;100.00
61757;BME280;57225;61.460;24.060;2023-03-26T18:51:15;98814.00;;;-4.27;100.00
61757;BME280;57225;61.460;24.060;2023-03-26T18:54:07;98806.50;;;-4.30;100.00
61757;BME280;57225;61.460;24.060;2023-03-26T18:56:52;98819.50;;;-4.35;100.00
61757;BME280;57225;61.460;24.060;2023-03-26T18:59:36;98814.88;;;-4.35;100.00
61757;BME280;57225;61.460;24.060;2023-03-26T19:02:23;98810.22;;;-4.34;100.00
61757;BME280;57225;61.460;24.060;2023-03-26T19:05:13;98809.56;;;-4.31;100.00
61757;BME280;57225;61.460;24.060;2023-03-26T19:08:00;98809.03;;;-4.25;100.00
61757;BME280;57225;61.460;24.060;2023-03-26T19:10:50;98805.13;;;-4.36;100.00
61757;BME280;57225;61.460;24.060;2023-03-26T19:13:37;98802.31;;;-4.39;100.00
61757;BME280;57225;61.460;24.060;2023-03-26T19:16:26;98805.00;;;-4.39;100.00
61757;BME280;57225;61.460;24.060;2023-03-26T19:19:19;98804.25;;;-4.28;100.00
61757;BME280;57225;61.460;24.060;2023-03-26T19:22:05;98796.97;;;-4.36;100.00
61757;BME280;57225;61.460;24.060;2023-03-26T19:24:55;98783.72;;;-4.37;100.00
61757;BME280;57225;61.460;24.060;2023-03-26T19:27:40;98777.25;;;-4.45;100.00
61757;BME280;57225;61.460;24.060;2023-03-26T19:30:31;98743.91;;;-4.54;100.00
61757;BME280;57225;61.460;24.060;2023-03-26T19:33:18;98757.75;;;-4.47;100.00
61757;BME280;57225;61.460;24.060;2023-03-26T19:36:05;98772.38;;;-4.39;100.00